Terminal Aerodrome Forecast
Issued by NWS Spokane, WA

Home | Current Version | Previous Version | Text Only | Print | Product List | Glossary On
Versions: 1 2 3 4 5 6 7 8 9 10 11 12 13 14 15 16 17 18 19 20 21 22 23 24 25 26 27 28 29 30 31
000
FTUS46 KOTX 200957 AAB
TAFLWS
TAF AMD
KLWS 200957Z 2010/2106 VRB04KT P6SM RA SCT030 OVC040
      TEMPO 2010/2012 5SM RA OVC030
     FM201300 25005KT P6SM -RA OVC050
     FM201500 25007KT P6SM OVC080
     FM201900 27016G23KT P6SM SCT060 BKN100=

USA.gov is the U.S. government's official web portal to all federal, state and local government web resources and services.